Time;durP1;ratioP1;P1;durP2;ratioP2;P2;SDS_P1;SDS_P2;PMS_P1;PMS_P2;Temp;Humidity;BMP_temperature;BMP_pressure;BME280_temperature;BME280_humidity;BME280_pressure;Samples;Min_cycle;Max_cycle;Signal;HPM_P1;HPM_P2
2023/12/26 00:02:12;;;;;;;4.03;2.17;;;9.40;99.90;;;;;;5051084;28;20045;-82
2023/12/26 00:04:38;;;;;;;3.75;2.00;;;9.40;99.90;;;;;;5052904;28;20044;-82
2023/12/26 00:07:04;;;;;;;2.72;1.98;;;9.40;99.90;;;;;;5051493;28;20055;-82
2023/12/26 00:09:29;;;;;;;3.78;1.95;;;9.50;99.90;;;;;;5072651;28;20124;-82
2023/12/26 00:11:55;;;;;;;3.47;1.90;;;9.40;99.90;;;;;;5050637;28;20072;-83
2023/12/26 00:14:21;;;;;;;4.95;1.60;;;9.50;99.90;;;;;;5053691;28;20076;-82
2023/12/26 00:16:46;;;;;;;3.08;1.50;;;9.40;99.90;;;;;;5052124;28;20025;-82
2023/12/26 00:19:12;;;;;;;2.58;1.30;;;9.50;99.90;;;;;;5052080;28;20060;-83
2023/12/26 00:21:38;;;;;;;4.03;1.52;;;9.60;99.90;;;;;;5053476;28;20408;-82
2023/12/26 00:24:05;;;;;;;3.15;1.30;;;9.40;99.90;;;;;;5046606;28;20033;-82
2023/12/26 00:26:31;;;;;;;2.20;1.35;;;9.50;99.90;;;;;;5052387;28;20033;-82
2023/12/26 00:28:56;;;;;;;3.90;1.70;;;9.60;99.90;;;;;;5051989;28;20120;-82
2023/12/26 00:31:22;;;;;;;3.08;1.55;;;9.40;99.90;;;;;;5053470;28;20082;-82
2023/12/26 00:33:53;;;;;;;2.70;1.50;;;9.60;99.90;;;;;;5052726;28;20033;-82
2023/12/26 00:36:18;;;;;;;3.05;1.70;;;9.50;99.90;;;;;;5052093;28;20040;-83
2023/12/26 00:38:47;;;;;;;2.75;1.60;;;9.50;99.90;;;;;;5053217;28;20167;-82
2023/12/26 00:41:16;;;;;;;4.05;1.50;;;9.50;99.90;;;;;;5053006;28;20033;-82
2023/12/26 00:43:42;;;;;;;3.42;1.73;;;9.50;99.90;;;;;;5050006;28;20386;-83
2023/12/26 00:46:08;;;;;;;2.72;1.63;;;9.60;99.90;;;;;;5052823;28;20051;-83
2023/12/26 00:48:36;;;;;;;3.53;1.63;;;9.50;99.90;;;;;;5053016;28;20033;-82
2023/12/26 00:51:03;;;;;;;5.63;1.90;;;9.50;99.90;;;;;;5051307;28;20037;-82
2023/12/26 00:53:29;;;;;;;2.45;1.30;;;9.50;99.90;;;;;;5052569;28;20107;-82
2023/12/26 00:55:54;;;;;;;3.05;1.30;;;9.50;99.90;;;;;;5048584;28;20040;-83
2023/12/26 00:58:20;;;;;;;3.40;1.48;;;9.50;99.90;;;;;;5049659;28;20107;-83
2023/12/26 01:00:46;;;;;;;3.03;1.40;;;9.60;99.90;;;;;;5049677;28;20044;-83
2023/12/26 01:03:11;;;;;;;2.85;1.30;;;9.60;99.90;;;;;;5046007;28;20052;-83
2023/12/26 01:05:37;;;;;;;5.32;1.40;;;9.60;99.90;;;;;;5051843;28;20072;-83
2023/12/26 01:08:03;;;;;;;1.60;1.10;;;9.70;99.90;;;;;;5051406;28;20061;-82
2023/12/26 01:10:29;;;;;;;4.05;0.80;;;9.60;99.90;;;;;;5050409;28;20102;-83
2023/12/26 01:12:54;;;;;;;2.95;1.05;;;9.60;99.90;;;;;;5049104;28;20041;-83
2023/12/26 01:15:20;;;;;;;5.45;1.30;;;9.70;99.90;;;;;;5046976;28;20496;-82
2023/12/26 01:17:46;;;;;;;4.95;1.10;;;9.70;99.90;;;;;;5050314;28;20037;-83
2023/12/26 01:20:12;;;;;;;5.93;1.02;;;9.60;99.90;;;;;;5050272;28;20036;-83
2023/12/26 01:22:37;;;;;;;2.70;0.70;;;9.60;99.90;;;;;;5065758;28;20041;-83
2023/12/26 01:25:05;;;;;;;5.60;0.88;;;9.60;99.90;;;;;;5097759;28;20083;-83
2023/12/26 01:27:31;;;;;;;6.88;1.23;;;9.60;99.90;;;;;;5063312;28;20405;-83
2023/12/26 01:29:56;;;;;;;7.20;1.48;;;9.60;99.90;;;;;;5064630;28;20045;-83
2023/12/26 01:32:22;;;;;;;6.70;1.38;;;9.60;99.90;;;;;;5064230;28;20101;-83
2023/12/26 01:34:48;;;;;;;6.65;1.38;;;9.50;99.90;;;;;;5058359;28;20508;-83
2023/12/26 01:37:14;;;;;;;5.68;1.50;;;9.60;99.90;;;;;;5051822;28;20094;-83
2023/12/26 01:39:40;;;;;;;9.25;1.25;;;9.60;99.90;;;;;;5043477;28;20049;-82
2023/12/26 01:42:06;;;;;;;7.75;1.60;;;9.70;99.90;;;;;;5042274;28;20041;-84
2023/12/26 01:44:31;;;;;;;7.32;1.38;;;9.60;99.90;;;;;;5046954;28;20088;-83
2023/12/26 01:46:57;;;;;;;9.45;1.60;;;9.60;99.90;;;;;;5047714;28;20045;-84
2023/12/26 01:49:22;;;;;;;7.18;1.13;;;9.60;99.90;;;;;;5049606;28;20217;-83
2023/12/26 01:51:51;;;;;;;11.10;1.85;;;9.70;99.90;;;;;;5046232;28;20388;-83
2023/12/26 01:54:18;;;;;;;11.27;2.22;;;9.60;99.90;;;;;;5050915;28;20041;-83
2023/12/26 01:56:45;;;;;;;9.77;1.52;;;9.50;99.90;;;;;;5047417;28;20047;-83
2023/12/26 01:59:10;;;;;;;12.32;1.90;;;9.60;99.90;;;;;;5046635;28;20586;-83
2023/12/26 02:01:36;;;;;;;10.07;1.65;;;9.70;99.90;;;;;;5048432;28;20072;-84
2023/12/26 02:04:03;;;;;;;11.35;1.52;;;9.60;99.90;;;;;;5048763;28;20498;-83
2023/12/26 02:06:30;;;;;;;14.77;1.88;;;9.50;99.90;;;;;;5049483;28;20040;-83
2023/12/26 02:08:56;;;;;;;13.57;1.95;;;9.50;99.90;;;;;;5051305;28;20041;-83
2023/12/26 02:11:22;;;;;;;8.88;1.65;;;9.50;99.90;;;;;;5044819;28;20037;-83
2023/12/26 02:13:48;;;;;;;13.50;2.10;;;9.60;99.90;;;;;;5046909;28;20052;-84
2023/12/26 02:16:19;;;;;;;13.73;2.03;;;9.50;99.90;;;;;;5047927;28;20041;-83
2023/12/26 02:18:44;;;;;;;12.52;1.98;;;9.50;99.90;;;;;;5045004;28;20040;-83
2023/12/26 02:21:11;;;;;;;15.30;2.15;;;9.70;99.90;;;;;;5046191;28;20032;-84
2023/12/26 02:23:38;;;;;;;14.48;2.30;;;9.70;99.90;;;;;;5048335;28;20048;-83
2023/12/26 02:26:05;;;;;;;13.23;2.33;;;9.60;99.90;;;;;;5050473;28;20029;-84
2023/12/26 02:28:32;;;;;;;15.13;1.85;;;9.60;99.90;;;;;;5048323;28;20033;-83
2023/12/26 02:31:01;;;;;;;12.57;1.92;;;9.50;99.90;;;;;;5042476;28;20052;-83
2023/12/26 02:33:28;;;;;;;11.90;1.83;;;9.50;99.90;;;;;;5048755;28;20447;-83
2023/12/26 02:35:55;;;;;;;14.80;2.00;;;9.40;99.90;;;;;;5048594;28;20039;-83
2023/12/26 02:38:20;;;;;;;10.27;2.53;;;9.50;99.90;;;;;;5046601;28;20075;-83
2023/12/26 02:40:51;;;;;;;12.45;2.05;;;9.40;99.90;;;;;;5048098;28;20649;-82
2023/12/26 02:43:25;;;;;;;12.32;2.08;;;9.40;99.90;;;;;;5049895;28;20048;-83
2023/12/26 02:45:51;;;;;;;14.13;2.42;;;9.30;99.90;;;;;;5048149;28;20530;-83
2023/12/26 02:48:17;;;;;;;12.13;2.55;;;9.30;99.90;;;;;;5049504;28;20037;-83
2023/12/26 02:50:46;;;;;;;9.82;1.95;;;9.40;99.90;;;;;;5049381;28;20488;-83
2023/12/26 02:53:12;;;;;;;11.35;1.70;;;9.30;99.90;;;;;;5049234;28;20037;-82
2023/12/26 02:55:38;;;;;;;9.80;2.05;;;9.30;99.90;;;;;;5041712;28;20064;-82
2023/12/26 02:58:04;;;;;;;11.98;2.08;;;9.20;99.90;;;;;;5047748;28;20060;-83
2023/12/26 03:00:30;;;;;;;14.60;2.08;;;9.10;99.90;;;;;;5048976;28;20126;-83
2023/12/26 03:02:56;;;;;;;9.68;2.30;;;9.20;99.90;;;;;;5049046;28;20400;-83
2023/12/26 03:05:22;;;;;;;12.25;1.65;;;9.10;99.90;;;;;;5045081;28;20029;-82
2023/12/26 03:07:48;;;;;;;13.70;1.70;;;9.10;99.90;;;;;;5049507;28;20120;-83
2023/12/26 03:10:13;;;;;;;8.35;1.50;;;9.00;99.90;;;;;;5045098;28;20124;-83
2023/12/26 03:12:39;;;;;;;9.00;1.80;;;9.10;99.90;;;;;;5049845;28;20400;-83
2023/12/26 03:15:05;;;;;;;10.30;2.72;;;9.00;99.90;;;;;;5041972;28;20119;-83
2023/12/26 03:17:31;;;;;;;8.32;2.03;;;8.90;99.90;;;;;;5047332;28;20443;-83
2023/12/26 03:19:57;;;;;;;11.82;1.58;;;8.90;99.90;;;;;;5048228;28;20041;-83
2023/12/26 03:22:22;;;;;;;9.85;1.48;;;9.30;99.90;;;;;;5049176;28;20090;-82
2023/12/26 03:24:48;;;;;;;11.35;2.15;;;8.90;99.90;;;;;;5049117;28;20059;-83
2023/12/26 03:27:14;;;;;;;10.57;1.92;;;8.90;99.90;;;;;;5049501;28;20065;-83
2023/12/26 03:29:40;;;;;;;11.18;2.45;;;9.10;99.90;;;;;;5050544;28;20080;-83
2023/12/26 03:32:08;;;;;;;7.38;1.77;;;8.90;99.90;;;;;;5045376;28;20073;-83
2023/12/26 03:34:33;;;;;;;7.50;1.40;;;8.80;99.90;;;;;;5045805;28;20047;-83
2023/12/26 03:36:59;;;;;;;8.30;2.33;;;8.80;99.90;;;;;;5046373;28;20463;-83
2023/12/26 03:39:25;;;;;;;10.57;2.17;;;8.80;99.90;;;;;;5053445;28;20047;-83
2023/12/26 03:41:50;;;;;;;9.27;1.90;;;8.80;99.90;;;;;;5048813;28;20037;-82
2023/12/26 03:44:16;;;;;;;11.75;2.08;;;8.70;99.90;;;;;;5052321;28;20044;-82
2023/12/26 03:46:42;;;;;;;14.35;2.22;;;8.70;99.90;;;;;;5050388;28;20044;-82
2023/12/26 03:49:08;;;;;;;9.70;1.77;;;8.70;99.90;;;;;;5053515;28;20127;-83
2023/12/26 03:51:34;;;;;;;11.95;2.30;;;8.60;99.90;;;;;;5051608;28;20071;-83
2023/12/26 03:54:01;;;;;;;13.02;2.70;;;8.50;99.90;;;;;;5049393;28;20033;-83
2023/12/26 03:56:31;;;;;;;10.75;2.25;;;8.50;99.90;;;;;;5046083;28;20048;-83
2023/12/26 03:58:57;;;;;;;14.27;2.75;;;8.50;99.90;;;;;;5085920;28;20032;-83
2023/12/26 04:01:23;;;;;;;12.88;2.47;;;8.80;99.90;;;;;;5049986;28;20044;-84
2023/12/26 04:03:49;;;;;;;11.05;2.10;;;8.40;99.90;;;;;;5049529;28;20408;-83
2023/12/26 04:06:15;;;;;;;14.90;2.70;;;8.30;99.90;;;;;;5052204;28;20175;-82
2023/12/26 04:08:41;;;;;;;13.73;2.90;;;8.30;99.90;;;;;;5048369;28;20034;-83
2023/12/26 04:11:08;;;;;;;15.13;2.30;;;8.20;99.90;;;;;;5052322;28;20493;-83
2023/12/26 04:13:34;;;;;;;11.43;2.78;;;8.40;99.90;;;;;;5046273;28;20052;-83
2023/12/26 04:16:00;;;;;;;16.52;2.80;;;8.20;99.90;;;;;;5049704;28;20033;-83
2023/12/26 04:18:25;;;;;;;16.70;2.63;;;8.40;99.90;;;;;;5052950;28;20035;-82
2023/12/26 04:20:51;;;;;;;17.30;2.40;;;8.10;99.90;;;;;;5034801;28;20515;-83
2023/12/26 04:23:16;;;;;;;15.45;2.40;;;8.20;99.90;;;;;;5041613;28;20049;-83
2023/12/26 04:25:42;;;;;;;10.75;1.90;;;8.00;99.90;;;;;;5050746;28;20048;-82
2023/12/26 04:28:08;;;;;;;13.73;2.00;;;7.90;99.90;;;;;;5050447;28;20049;-82
2023/12/26 04:30:33;;;;;;;19.25;3.20;;;8.00;99.90;;;;;;5050221;28;20440;-82
2023/12/26 04:32:59;;;;;;;11.85;2.17;;;7.80;99.90;;;;;;5049804;28;20037;-83
2023/12/26 04:35:24;;;;;;;15.38;3.05;;;7.80;99.90;;;;;;5048997;28;20115;-82
2023/12/26 04:37:50;;;;;;;15.38;1.88;;;7.90;99.90;;;;;;5049367;28;20404;-81
2023/12/26 04:40:16;;;;;;;14.98;1.92;;;7.80;99.90;;;;;;5052985;28;20447;-83
2023/12/26 04:42:42;;;;;;;18.10;2.70;;;7.80;99.90;;;;;;5051018;28;20036;-82
2023/12/26 04:45:08;;;;;;;16.05;2.70;;;7.70;99.90;;;;;;5050513;28;20419;-83
2023/12/26 04:47:33;;;;;;;13.32;2.63;;;7.70;99.90;;;;;;5048885;28;20093;-83
2023/12/26 04:49:59;;;;;;;14.23;2.72;;;7.90;99.90;;;;;;5050854;28;20037;-83
2023/12/26 04:52:25;;;;;;;20.00;2.42;;;7.90;99.90;;;;;;5050889;28;20044;-83
2023/12/26 04:54:51;;;;;;;21.45;3.15;;;7.90;99.90;;;;;;5043835;28;20400;-82
2023/12/26 04:57:17;;;;;;;13.00;1.83;;;7.60;99.90;;;;;;5050813;28;20029;-82
2023/12/26 04:59:42;;;;;;;14.18;1.88;;;7.70;99.90;;;;;;5043935;28;20311;-83
2023/12/26 05:02:08;;;;;;;14.20;1.92;;;7.70;99.90;;;;;;5049652;28;20044;-82
2023/12/26 05:04:33;;;;;;;17.83;2.85;;;7.80;99.90;;;;;;5044269;28;20381;-82
2023/12/26 05:06:59;;;;;;;15.40;2.17;;;7.70;99.90;;;;;;5053757;28;20100;-82
2023/12/26 05:09:25;;;;;;;9.95;2.25;;;7.60;99.90;;;;;;5048267;28;20037;-83
2023/12/26 05:11:51;;;;;;;14.35;2.05;;;7.80;99.90;;;;;;5048549;28;20447;-84
2023/12/26 05:14:18;;;;;;;16.27;1.90;;;7.80;99.90;;;;;;5048382;28;20116;-83
2023/12/26 05:16:45;;;;;;;12.00;2.15;;;7.70;99.90;;;;;;5050532;28;20091;-83
2023/12/26 05:19:10;;;;;;;15.70;2.38;;;7.90;99.90;;;;;;5050353;28;20055;-83
2023/12/26 05:21:36;;;;;;;11.65;2.28;;;7.90;99.90;;;;;;5047137;28;20504;-83
2023/12/26 05:24:04;;;;;;;11.50;1.90;;;7.90;99.90;;;;;;5047514;28;20048;-82
2023/12/26 05:26:30;;;;;;;16.30;2.40;;;7.80;99.90;;;;;;5045520;28;20400;-83
2023/12/26 05:28:55;;;;;;;9.10;2.20;;;7.80;99.90;;;;;;5044325;28;20032;-83
2023/12/26 05:31:21;;;;;;;12.57;2.13;;;7.90;99.90;;;;;;5046582;28;20049;-84
2023/12/26 05:33:46;;;;;;;13.10;2.15;;;7.90;99.90;;;;;;5050197;28;20112;-83
2023/12/26 05:36:12;;;;;;;11.85;2.03;;;8.00;99.90;;;;;;5049515;28;20436;-84
2023/12/26 05:38:38;;;;;;;13.32;2.05;;;8.00;99.90;;;;;;5050885;28;20044;-83
2023/12/26 05:41:04;;;;;;;12.88;2.15;;;8.10;99.90;;;;;;5047862;28;20414;-83
2023/12/26 05:43:31;;;;;;;10.07;2.30;;;8.00;99.90;;;;;;5050988;28;20381;-82
2023/12/26 05:45:57;;;;;;;9.98;1.92;;;8.00;99.90;;;;;;5044750;28;20048;-82
2023/12/26 05:48:23;;;;;;;9.57;2.03;;;8.10;99.90;;;;;;5049858;28;20033;-82
2023/12/26 05:50:48;;;;;;;13.98;2.10;;;8.40;99.90;;;;;;5049413;28;20033;-83
2023/12/26 05:53:14;;;;;;;16.77;2.40;;;8.10;99.90;;;;;;5051105;28;20047;-82
2023/12/26 05:55:40;;;;;;;15.70;2.22;;;8.30;99.90;;;;;;5077877;28;20039;-82
2023/12/26 05:58:05;;;;;;;10.68;1.98;;;8.20;99.90;;;;;;5043533;28;20045;-82
2023/12/26 06:00:31;;;;;;;14.15;2.20;;;8.20;99.90;;;;;;5047594;28;20047;-82
2023/12/26 06:02:56;;;;;;;14.88;2.50;;;8.10;99.90;;;;;;5051042;28;20044;-82
2023/12/26 06:05:22;;;;;;;14.18;2.05;;;8.10;99.90;;;;;;5050664;28;20033;-82
2023/12/26 06:07:48;;;;;;;14.45;2.60;;;8.40;99.90;;;;;;5043801;28;20094;-83
2023/12/26 06:10:14;;;;;;;11.63;1.90;;;8.10;99.90;;;;;;5041542;28;20503;-83
2023/12/26 06:12:39;;;;;;;15.27;2.30;;;8.50;99.90;;;;;;5077705;28;20513;-83
2023/12/26 06:15:05;;;;;;;10.25;1.88;;;8.40;99.90;;;;;;5049439;28;20048;-83
2023/12/26 06:17:31;;;;;;;9.50;2.08;;;8.10;99.90;;;;;;5042696;28;20037;-83
2023/12/26 06:19:57;;;;;;;12.52;2.55;;;8.20;99.90;;;;;;5032343;28;20056;-83
2023/12/26 06:22:22;;;;;;;10.13;1.90;;;8.40;99.90;;;;;;5046723;28;20033;-82
2023/12/26 06:24:48;;;;;;;13.82;2.33;;;8.70;99.90;;;;;;5050848;28;20029;-83
2023/12/26 06:27:14;;;;;;;11.68;1.80;;;8.20;99.90;;;;;;5047991;28;20627;-82
2023/12/26 06:29:39;;;;;;;11.15;2.80;;;8.20;99.90;;;;;;5076989;28;20045;-84
2023/12/26 06:32:05;;;;;;;14.00;2.05;;;8.10;99.90;;;;;;5044619;28;20037;-83
2023/12/26 06:34:31;;;;;;;12.40;2.63;;;8.10;99.90;;;;;;5048393;28;20029;-82
2023/12/26 06:36:56;;;;;;;11.65;2.28;;;8.00;99.90;;;;;;5048590;28;20041;-82
2023/12/26 06:39:22;;;;;;;12.55;2.22;;;8.00;99.90;;;;;;5050673;28;20028;-83
2023/12/26 06:41:47;;;;;;;13.85;2.10;;;8.20;99.90;;;;;;5046904;28;20044;-83
2023/12/26 06:44:13;;;;;;;10.85;2.42;;;8.00;99.90;;;;;;5046929;28;20105;-82
2023/12/26 06:46:42;;;;;;;12.85;2.53;;;8.00;99.90;;;;;;5043508;28;20116;-82
2023/12/26 06:49:08;;;;;;;10.45;2.45;;;8.20;99.90;;;;;;5048881;28;20049;-82
2023/12/26 06:51:39;;;;;;;13.57;2.35;;;8.00;99.90;;;;;;5047343;28;20457;-82
2023/12/26 06:54:04;;;;;;;13.32;2.05;;;7.90;99.90;;;;;;5047810;28;20527;-82
2023/12/26 06:56:30;;;;;;;13.23;2.35;;;8.00;99.90;;;;;;5049386;28;20045;-82
2023/12/26 06:58:57;;;;;;;8.65;2.00;;;8.00;99.90;;;;;;5047019;28;20039;-83
2023/12/26 07:01:23;;;;;;;11.32;2.35;;;8.10;99.90;;;;;;5045538;28;20033;-82
2023/12/26 07:03:49;;;;;;;8.60;2.25;;;8.10;99.90;;;;;;5038902;28;20083;-82
2023/12/26 07:06:14;;;;;;;10.48;2.28;;;8.10;99.90;;;;;;5041767;28;20037;-82
2023/12/26 07:08:40;;;;;;;18.50;2.40;;;8.10;99.90;;;;;;5048022;28;20064;-83
2023/12/26 07:11:06;;;;;;;12.85;2.63;;;8.10;99.90;;;;;;5046830;28;20219;-82
2023/12/26 07:13:31;;;;;;;15.00;2.45;;;8.10;99.90;;;;;;5046807;28;20052;-82
2023/12/26 07:15:57;;;;;;;19.17;2.85;;;8.10;99.90;;;;;;5047986;28;20496;-82
2023/12/26 07:18:23;;;;;;;11.52;2.15;;;8.10;99.90;;;;;;5047588;28;20041;-82
2023/12/26 07:20:48;;;;;;;10.40;1.90;;;8.40;99.90;;;;;;5043627;28;20069;-83
2023/12/26 07:23:14;;;;;;;15.48;2.38;;;8.10;99.90;;;;;;5047672;28;20452;-83
2023/12/26 07:25:41;;;;;;;16.48;2.80;;;8.10;99.90;;;;;;5047033;28;20556;-82
2023/12/26 07:28:06;;;;;;;15.02;2.47;;;8.10;99.90;;;;;;5043415;28;20413;-83
2023/12/26 07:30:32;;;;;;;13.02;2.42;;;8.20;99.90;;;;;;5043621;28;20044;-83
2023/12/26 07:32:58;;;;;;;17.00;3.08;;;8.50;99.90;;;;;;5050597;28;20033;-84
2023/12/26 07:35:24;;;;;;;15.05;2.97;;;8.50;99.90;;;;;;5025929;28;20167;-83
2023/12/26 07:37:50;;;;;;;14.90;2.60;;;8.20;99.90;;;;;;5040951;28;20049;-83
2023/12/26 07:40:16;;;;;;;15.85;2.40;;;8.20;99.90;;;;;;5049511;28;20529;-82
2023/12/26 07:42:42;;;;;;;15.70;2.70;;;8.20;99.90;;;;;;5072043;28;20041;-83
2023/12/26 07:45:08;;;;;;;12.25;1.77;;;8.20;99.90;;;;;;5047860;28;20202;-83
2023/12/26 07:47:34;;;;;;;12.02;2.60;;;8.20;99.90;;;;;;5046439;28;20502;-83
2023/12/26 07:50:00;;;;;;;14.18;2.38;;;8.20;99.90;;;;;;5046122;28;20116;-83
2023/12/26 07:52:26;;;;;;;18.80;2.83;;;8.20;99.90;;;;;;5038511;28;20168;-82
2023/12/26 07:54:52;;;;;;;15.02;2.17;;;8.20;99.90;;;;;;5045128;28;20098;-82
2023/12/26 07:57:17;;;;;;;10.05;2.15;;;8.20;99.90;;;;;;5046264;28;20273;-83
2023/12/26 07:59:43;;;;;;;9.95;1.80;;;8.20;99.90;;;;;;5048582;28;20041;-82
2023/12/26 08:02:08;;;;;;;14.38;2.47;;;8.20;99.90;;;;;;5047815;28;20037;-82
2023/12/26 08:04:34;;;;;;;12.30;2.40;;;8.20;99.90;;;;;;5047579;28;20148;-82
2023/12/26 08:07:00;;;;;;;17.50;2.83;;;8.40;99.90;;;;;;5046478;28;20038;-82
2023/12/26 08:09:25;;;;;;;19.33;2.65;;;8.20;99.90;;;;;;5045945;28;20455;-82
2023/12/26 08:11:51;;;;;;;17.45;2.58;;;8.20;99.90;;;;;;5043870;28;20085;-82
2023/12/26 08:14:17;;;;;;;12.77;2.83;;;8.20;99.90;;;;;;5045101;28;20815;-82
2023/12/26 08:16:46;;;;;;;13.13;2.80;;;8.20;99.90;;;;;;5044807;28;20048;-82
2023/12/26 08:19:11;;;;;;;18.83;2.70;;;8.20;99.90;;;;;;5045023;28;20037;-82
2023/12/26 08:21:37;;;;;;;14.07;2.55;;;8.20;99.90;;;;;;5046422;28;20045;-81
2023/12/26 08:24:04;;;;;;;10.25;2.22;;;8.20;99.90;;;;;;5070631;28;20084;-82
2023/12/26 08:26:33;;;;;;;16.58;2.78;;;8.20;99.90;;;;;;5049315;28;20052;-82
2023/12/26 08:29:00;;;;;;;15.48;2.50;;;8.30;99.90;;;;;;5048988;28;20045;-82
2023/12/26 08:31:26;;;;;;;13.60;2.47;;;8.30;99.90;;;;;;5051954;28;20447;-82
2023/12/26 08:33:52;;;;;;;15.48;3.33;;;8.40;99.90;;;;;;5053172;28;20064;-81
2023/12/26 08:36:18;;;;;;;13.20;2.47;;;8.30;99.90;;;;;;5053264;28;20416;-82
2023/12/26 08:38:43;;;;;;;19.23;2.60;;;8.40;99.90;;;;;;5051864;28;20080;-83
2023/12/26 08:41:12;;;;;;;17.35;3.40;;;8.40;99.90;;;;;;5050754;28;20040;-83
2023/12/26 08:43:37;;;;;;;13.40;2.47;;;8.30;99.90;;;;;;5051798;28;20088;-83
2023/12/26 08:46:03;;;;;;;13.88;2.67;;;8.50;99.90;;;;;;5049466;28;20033;-83
2023/12/26 08:48:29;;;;;;;15.52;2.28;;;8.30;99.90;;;;;;5049998;28;20041;-82
2023/12/26 08:50:55;;;;;;;10.73;2.33;;;8.60;99.90;;;;;;5050551;28;20048;-83
2023/12/26 08:53:20;;;;;;;16.33;2.80;;;8.30;99.90;;;;;;5047598;28;20041;-82
2023/12/26 08:55:47;;;;;;;12.90;2.22;;;8.30;99.90;;;;;;5048743;28;20116;-82
2023/12/26 08:58:13;;;;;;;15.05;2.65;;;8.40;99.90;;;;;;5049429;28;20155;-83
2023/12/26 09:00:40;;;;;;;13.98;3.10;;;8.30;99.90;;;;;;5046606;28;20069;-83
2023/12/26 09:03:07;;;;;;;12.07;2.67;;;8.40;99.90;;;;;;5051986;28;20037;-83
2023/12/26 09:05:33;;;;;;;15.23;2.75;;;8.40;99.90;;;;;;5052320;28;20033;-83
2023/12/26 09:07:59;;;;;;;13.30;2.20;;;8.60;99.90;;;;;;5049775;28;20028;-83
2023/12/26 09:10:25;;;;;;;13.30;2.33;;;8.40;99.90;;;;;;5033470;28;20048;-83
2023/12/26 09:12:50;;;;;;;12.93;2.20;;;8.40;99.90;;;;;;5048985;28;20037;-83
2023/12/26 09:15:17;;;;;;;13.82;2.53;;;8.60;99.90;;;;;;5044947;28;20040;-83
2023/12/26 09:17:43;;;;;;;20.63;2.95;;;8.40;99.90;;;;;;5046702;28;20444;-83
2023/12/26 09:20:09;;;;;;;17.42;2.72;;;8.40;99.90;;;;;;5045023;28;20087;-83
2023/12/26 09:22:35;;;;;;;17.02;2.70;;;8.40;99.90;;;;;;5044696;28;20119;-84
2023/12/26 09:25:02;;;;;;;14.52;2.53;;;8.50;99.90;;;;;;5049049;28;20040;-83
2023/12/26 09:27:28;;;;;;;15.88;2.20;;;8.50;99.90;;;;;;5051314;28;20650;-83
2023/12/26 09:29:54;;;;;;;17.98;2.40;;;8.50;99.90;;;;;;5045360;28;20123;-83
2023/12/26 09:32:19;;;;;;;16.98;2.60;;;8.70;99.90;;;;;;5049775;28;20433;-83
2023/12/26 09:34:45;;;;;;;17.20;2.83;;;8.50;99.90;;;;;;5048943;28;20037;-83
2023/12/26 09:37:11;;;;;;;9.38;2.05;;;9.00;99.90;;;;;;5046735;28;20496;-83
2023/12/26 09:39:36;;;;;;;14.40;2.17;;;8.50;99.90;;;;;;5048643;28;20116;-84
2023/12/26 09:42:04;;;;;;;16.42;2.22;;;8.60;99.90;;;;;;5045890;28;20516;-83
2023/12/26 09:44:30;;;;;;;18.20;2.92;;;8.50;99.90;;;;;;5049189;28;20537;-83
2023/12/26 09:46:57;;;;;;;12.50;2.45;;;8.70;99.90;;;;;;5084371;28;20112;-83
2023/12/26 09:49:22;;;;;;;14.73;2.53;;;8.80;99.90;;;;;;5074236;28;20404;-83
2023/12/26 09:51:51;;;;;;;11.07;2.10;;;8.50;99.90;;;;;;5051296;28;20040;-84
2023/12/26 09:54:20;;;;;;;17.60;2.30;;;8.60;99.90;;;;;;5038282;28;20061;-82
2023/12/26 09:56:47;;;;;;;14.80;2.60;;;8.50;99.90;;;;;;5043744;28;20040;-84
2023/12/26 09:59:13;;;;;;;16.05;2.90;;;8.70;99.90;;;;;;5047791;28;20116;-83
2023/12/26 10:01:38;;;;;;;14.63;2.60;;;8.60;99.90;;;;;;5044178;28;20051;-82
2023/12/26 10:04:06;;;;;;;12.57;2.55;;;9.10;99.90;;;;;;5040306;28;20045;-82
2023/12/26 10:06:32;;;;;;;15.05;2.72;;;8.60;99.90;;;;;;5046598;28;20128;-83
2023/12/26 10:08:57;;;;;;;11.98;2.10;;;8.70;99.90;;;;;;5041072;28;20121;-83
2023/12/26 10:11:24;;;;;;;11.88;2.60;;;8.60;99.90;;;;;;5050039;28;20044;-83
2023/12/26 10:13:52;;;;;;;17.70;2.88;;;8.80;99.90;;;;;;5051178;28;20468;-82
2023/12/26 10:16:18;;;;;;;12.27;2.40;;;8.70;99.90;;;;;;5042004;28;20120;-82
2023/12/26 10:18:44;;;;;;;14.43;2.15;;;8.80;99.90;;;;;;5043357;28;20121;-82
2023/12/26 10:21:11;;;;;;;13.23;2.65;;;8.80;99.90;;;;;;5044906;28;20053;-83
2023/12/26 10:23:37;;;;;;;13.52;2.53;;;8.90;99.90;;;;;;5077322;28;20037;-82
2023/12/26 10:26:03;;;;;;;11.32;2.35;;;8.90;99.90;;;;;;5039262;28;20099;-84
2023/12/26 10:28:29;;;;;;;13.55;2.78;;;8.90;99.90;;;;;;5041438;28;20037;-81
2023/12/26 10:30:55;;;;;;;14.80;3.00;;;8.90;99.90;;;;;;5036842;28;20523;-82
2023/12/26 10:33:26;;;;;;;12.57;3.05;;;9.10;99.90;;;;;;5045740;28;20033;-82
2023/12/26 10:36:03;;;;;;;14.63;2.33;;;8.90;99.90;;;;;;5046497;28;20044;-82
2023/12/26 10:38:29;;;;;;;16.20;2.70;;;8.90;99.90;;;;;;5048984;28;20041;-83
2023/12/26 10:40:58;;;;;;;11.95;3.05;;;8.80;99.90;;;;;;5050184;28;20029;-82
2023/12/26 10:43:26;;;;;;;24.02;3.03;;;8.80;99.90;;;;;;5081490;28;20037;-82
2023/12/26 10:45:55;;;;;;;11.70;2.17;;;8.80;99.90;;;;;;5049165;28;20047;-82
2023/12/26 10:48:21;;;;;;;13.95;2.38;;;9.00;99.90;;;;;;5040675;28;20079;-82
2023/12/26 10:50:49;;;;;;;11.80;2.67;;;9.00;99.90;;;;;;5047277;28;20412;-82
2023/12/26 10:53:16;;;;;;;17.55;2.95;;;9.00;99.90;;;;;;5048999;28;20040;-84
2023/12/26 10:55:46;;;;;;;15.52;2.53;;;9.10;99.90;;;;;;5049549;28;20037;-84
2023/12/26 10:58:12;;;;;;;14.85;2.53;;;9.00;99.90;;;;;;5044908;28;20137;-82
2023/12/26 11:00:40;;;;;;;18.92;3.60;;;8.90;99.90;;;;;;5049133;28;20124;-81
2023/12/26 11:03:06;;;;;;;10.55;2.50;;;8.90;99.90;;;;;;5049437;28;20114;-84
2023/12/26 11:05:32;;;;;;;13.40;2.20;;;8.90;99.90;;;;;;5045880;28;20492;-82
2023/12/26 11:07:58;;;;;;;19.08;2.78;;;9.10;99.90;;;;;;5045082;28;20037;-81
2023/12/26 11:10:24;;;;;;;20.13;3.13;;;8.90;99.90;;;;;;5049359;28;20132;-82
2023/12/26 11:12:50;;;;;;;10.93;2.60;;;9.00;99.90;;;;;;5045199;28;20059;-82
2023/12/26 11:15:16;;;;;;;17.98;2.90;;;8.90;99.90;;;;;;5048034;28;20045;-83
2023/12/26 11:17:42;;;;;;;13.65;2.63;;;9.00;99.90;;;;;;5046346;28;20456;-82
2023/12/26 11:20:07;;;;;;;14.30;2.90;;;9.00;99.90;;;;;;5041669;28;20056;-82
2023/12/26 11:22:33;;;;;;;14.02;2.88;;;9.00;99.90;;;;;;5038707;28;20047;-82
2023/12/26 11:24:59;;;;;;;14.02;2.58;;;9.00;99.90;;;;;;5074752;28;20600;-82
2023/12/26 11:27:26;;;;;;;17.05;2.92;;;9.00;99.90;;;;;;5039440;28;20048;-81
2023/12/26 11:29:51;;;;;;;13.95;3.55;;;9.10;99.90;;;;;;5050229;28;20051;-81
2023/12/26 11:32:17;;;;;;;18.05;3.25;;;8.90;99.90;;;;;;5048453;28;20124;-81
2023/12/26 11:34:43;;;;;;;19.58;3.13;;;8.90;99.90;;;;;;5049176;28;20049;-82
2023/12/26 11:37:10;;;;;;;14.90;3.75;;;8.90;99.90;;;;;;5045828;28;20389;-82
2023/12/26 11:39:36;;;;;;;14.80;2.95;;;8.90;99.90;;;;;;5044044;28;20037;-82
2023/12/26 11:42:02;;;;;;;14.20;3.33;;;8.90;99.90;;;;;;5045054;28;20041;-82
2023/12/26 11:44:28;;;;;;;16.85;2.30;;;8.80;99.90;;;;;;5044312;28;20127;-82
2023/12/26 11:46:54;;;;;;;11.98;2.50;;;9.00;99.90;;;;;;5048565;28;20060;-81
2023/12/26 11:49:20;;;;;;;15.55;2.60;;;8.90;99.90;;;;;;5053220;28;20120;-82
2023/12/26 11:51:46;;;;;;;15.27;2.63;;;9.00;99.90;;;;;;5049456;28;20090;-82
2023/12/26 11:54:12;;;;;;;17.02;2.45;;;8.90;99.90;;;;;;5045933;28;20492;-82
2023/12/26 11:56:38;;;;;;;14.10;2.47;;;8.80;99.90;;;;;;5050114;28;20059;-82
2023/12/26 11:59:03;;;;;;;14.13;3.10;;;8.80;99.90;;;;;;5047490;28;20045;-83
2023/12/26 12:01:29;;;;;;;12.68;2.42;;;8.80;99.90;;;;;;5051677;28;20028;-82
2023/12/26 12:03:55;;;;;;;13.60;2.13;;;8.90;99.90;;;;;;5050879;28;20024;-80
2023/12/26 12:06:20;;;;;;;14.98;2.70;;;9.10;99.90;;;;;;5051824;28;20407;-80
2023/12/26 12:09:05;;;;;;;17.27;2.90;;;9.00;99.90;;;;;;5048646;28;20552;-83
2023/12/26 12:11:32;;;;;;;13.15;2.22;;;9.30;99.90;;;;;;5048131;28;20039;-81
2023/12/26 12:13:58;;;;;;;12.05;2.22;;;9.00;99.90;;;;;;5053522;28;20048;-81
2023/12/26 12:16:24;;;;;;;15.57;2.70;;;9.00;99.90;;;;;;5052325;28;20416;-80
2023/12/26 12:19:00;;;;;;;12.85;2.60;;;8.90;99.90;;;;;;5075231;28;20030;-81
2023/12/26 12:21:36;;;;;;;20.00;3.67;;;9.00;99.90;;;;;;5084672;28;20098;-82
2023/12/26 12:24:04;;;;;;;10.13;2.13;;;9.10;99.90;;;;;;5051441;28;20057;-81
2023/12/26 12:27:05;;;;;;;14.23;3.00;;;8.90;99.90;;;;;;5028016;28;20550;-80
2023/12/26 12:29:59;;;;;;;15.75;2.90;;;8.90;99.90;;;;;;5033411;28;20515;-80
2023/12/26 12:32:31;;;;;;;15.02;2.50;;;8.90;99.90;;;;;;5051084;28;20416;-80
2023/12/26 12:35:14;;;;;;;12.88;2.40;;;9.00;99.90;;;;;;5047786;28;20052;-81
2023/12/26 12:37:40;;;;;;;16.55;2.70;;;8.90;99.90;;;;;;5049977;28;20064;-85
2023/12/26 12:40:06;;;;;;;15.68;2.45;;;8.80;99.90;;;;;;5046588;28;20123;-82
2023/12/26 12:42:36;;;;;;;16.90;2.97;;;8.70;99.90;;;;;;5045402;28;20041;-83
2023/12/26 12:45:05;;;;;;;14.02;2.65;;;8.50;99.90;;;;;;5050944;28;20464;-84